sensor_id;sensor_type;location;lat;lon;timestamp;P1;durP1;ratioP1;P2;durP2;ratioP2
30466;SDS011;17258;52.560;13.046;2023-06-14T00:05:08;1.40;;;1.10;;
30466;SDS011;17258;52.560;13.046;2023-06-14T00:15:09;0.77;;;0.77;;
30466;SDS011;17258;52.560;13.046;2023-06-14T00:25:10;2.42;;;1.27;;
30466;SDS011;17258;52.560;13.046;2023-06-14T00:35:11;1.30;;;1.00;;
30466;SDS011;17258;52.560;13.046;2023-06-14T00:45:12;1.65;;;1.13;;
30466;SDS011;17258;52.560;13.046;2023-06-14T00:55:15;1.30;;;1.20;;
30466;SDS011;17258;52.560;13.046;2023-06-14T01:05:16;1.42;;;1.33;;
30466;SDS011;17258;52.560;13.046;2023-06-14T01:15:17;1.20;;;1.10;;
30466;SDS011;17258;52.560;13.046;2023-06-14T01:25:21;11.38;;;1.52;;
30466;SDS011;17258;52.560;13.046;2023-06-14T01:35:23;1.13;;;1.02;;
30466;SDS011;17258;52.560;13.046;2023-06-14T01:45:24;1.27;;;1.17;;
30466;SDS011;17258;52.560;13.046;2023-06-14T01:55:25;1.38;;;1.27;;
30466;SDS011;17258;52.560;13.046;2023-06-14T02:05:29;0.80;;;0.80;;
30466;SDS011;17258;52.560;13.046;2023-06-14T02:15:33;1.35;;;1.20;;
30466;SDS011;17258;52.560;13.046;2023-06-14T02:25:34;1.73;;;1.35;;
30466;SDS011;17258;52.560;13.046;2023-06-14T02:35:35;1.58;;;1.35;;
30466;SDS011;17258;52.560;13.046;2023-06-14T02:45:37;1.55;;;1.45;;
30466;SDS011;17258;52.560;13.046;2023-06-14T02:55:38;1.47;;;1.30;;
30466;SDS011;17258;52.560;13.046;2023-06-14T03:05:46;1.30;;;1.20;;
30466;SDS011;17258;52.560;13.046;2023-06-14T03:15:49;2.95;;;1.60;;
30466;SDS011;17258;52.560;13.046;2023-06-14T03:25:50;1.60;;;1.50;;
30466;SDS011;17258;52.560;13.046;2023-06-14T03:35:51;1.60;;;1.05;;
30466;SDS011;17258;52.560;13.046;2023-06-14T03:45:52;6.43;;;1.40;;
30466;SDS011;17258;52.560;13.046;2023-06-14T03:55:52;1.60;;;1.45;;
30466;SDS011;17258;52.560;13.046;2023-06-14T04:05:53;2.83;;;1.92;;
30466;SDS011;17258;52.560;13.046;2023-06-14T04:15:56;2.20;;;1.77;;
30466;SDS011;17258;52.560;13.046;2023-06-14T04:25:57;2.40;;;2.13;;
30466;SDS011;17258;52.560;13.046;2023-06-14T04:36:02;5.30;;;1.98;;
30466;SDS011;17258;52.560;13.046;2023-06-14T04:46:07;2.58;;;2.10;;
30466;SDS011;17258;52.560;13.046;2023-06-14T04:56:10;2.38;;;2.03;;
30466;SDS011;17258;52.560;13.046;2023-06-14T05:06:11;4.13;;;2.27;;
30466;SDS011;17258;52.560;13.046;2023-06-14T05:16:12;3.37;;;2.30;;
30466;SDS011;17258;52.560;13.046;2023-06-14T05:26:13;4.78;;;2.20;;
30466;SDS011;17258;52.560;13.046;2023-06-14T05:36:13;3.70;;;2.03;;
30466;SDS011;17258;52.560;13.046;2023-06-14T05:46:14;4.38;;;2.92;;
30466;SDS011;17258;52.560;13.046;2023-06-14T05:56:22;2.60;;;2.40;;
30466;SDS011;17258;52.560;13.046;2023-06-14T06:06:26;2.38;;;2.20;;
30466;SDS011;17258;52.560;13.046;2023-06-14T06:16:27;2.20;;;2.00;;
30466;SDS011;17258;52.560;13.046;2023-06-14T06:26:30;2.83;;;2.63;;
30466;SDS011;17258;52.560;13.046;2023-06-14T06:36:32;2.28;;;2.05;;
30466;SDS011;17258;52.560;13.046;2023-06-14T06:46:33;2.23;;;2.03;;
30466;SDS011;17258;52.560;13.046;2023-06-14T06:56:39;2.92;;;2.70;;
30466;SDS011;17258;52.560;13.046;2023-06-14T07:06:41;2.60;;;2.40;;
30466;SDS011;17258;52.560;13.046;2023-06-14T07:16:45;4.45;;;2.35;;
30466;SDS011;17258;52.560;13.046;2023-06-14T07:26:49;3.17;;;2.20;;
30466;SDS011;17258;52.560;13.046;2023-06-14T07:36:50;2.35;;;2.15;;
30466;SDS011;17258;52.560;13.046;2023-06-14T07:46:54;3.28;;;2.25;;
30466;SDS011;17258;52.560;13.046;2023-06-14T07:56:58;2.17;;;2.03;;
30466;SDS011;17258;52.560;13.046;2023-06-14T08:07:00;1.80;;;1.70;;
30466;SDS011;17258;52.560;13.046;2023-06-14T08:17:03;3.03;;;2.00;;
30466;SDS011;17258;52.560;13.046;2023-06-14T08:27:07;1.58;;;1.48;;
30466;SDS011;17258;52.560;13.046;2023-06-14T08:37:08;2.97;;;1.90;;
30466;SDS011;17258;52.560;13.046;2023-06-14T08:47:12;2.40;;;2.20;;
30466;SDS011;17258;52.560;13.046;2023-06-14T08:57:14;1.95;;;1.60;;
30466;SDS011;17258;52.560;13.046;2023-06-14T09:07:25;2.22;;;2.03;;
30466;SDS011;17258;52.560;13.046;2023-06-14T09:17:29;1.30;;;1.13;;
30466;SDS011;17258;52.560;13.046;2023-06-14T09:27:30;1.87;;;1.70;;
30466;SDS011;17258;52.560;13.046;2023-06-14T09:37:34;16.83;;;15.63;;
30466;SDS011;17258;52.560;13.046;2023-06-14T09:47:38;17.42;;;15.63;;
30466;SDS011;17258;52.560;13.046;2023-06-14T09:57:40;18.17;;;16.52;;
30466;SDS011;17258;52.560;13.046;2023-06-14T10:07:52;16.67;;;15.60;;
30466;SDS011;17258;52.560;13.046;2023-06-14T10:18:13;17.05;;;15.57;;
30466;SDS011;17258;52.560;13.046;2023-06-14T10:28:30;16.95;;;15.95;;
30466;SDS011;17258;52.560;13.046;2023-06-14T10:38:32;17.75;;;16.40;;
30466;SDS011;17258;52.560;13.046;2023-06-14T10:48:39;17.80;;;16.65;;
30466;SDS011;17258;52.560;13.046;2023-06-14T10:58:42;17.52;;;16.38;;
30466;SDS011;17258;52.560;13.046;2023-06-14T11:19:26;17.60;;;16.30;;
30466;SDS011;17258;52.560;13.046;2023-06-14T11:29:28;17.05;;;15.98;;
30466;SDS011;17258;52.560;13.046;2023-06-14T11:39:29;17.75;;;16.38;;
30466;SDS011;17258;52.560;13.046;2023-06-14T11:49:34;18.20;;;17.00;;
30466;SDS011;17258;52.560;13.046;2023-06-14T11:59:39;18.85;;;17.55;;
30466;SDS011;17258;52.560;13.046;2023-06-14T12:10:03;19.58;;;17.70;;
30466;SDS011;17258;52.560;13.046;2023-06-14T12:20:11;18.90;;;17.58;;
30466;SDS011;17258;52.560;13.046;2023-06-14T12:30:16;18.52;;;17.33;;
30466;SDS011;17258;52.560;13.046;2023-06-14T12:40:17;19.02;;;17.63;;
30466;SDS011;17258;52.560;13.046;2023-06-14T12:50:18;18.90;;;17.50;;
30466;SDS011;17258;52.560;13.046;2023-06-14T13:00:18;19.37;;;17.90;;
30466;SDS011;17258;52.560;13.046;2023-06-14T13:10:20;20.13;;;18.63;;
30466;SDS011;17258;52.560;13.046;2023-06-14T13:20:24;20.13;;;18.73;;
30466;SDS011;17258;52.560;13.046;2023-06-14T13:30:25;19.33;;;17.90;;
30466;SDS011;17258;52.560;13.046;2023-06-14T13:40:25;14.33;;;13.23;;
30466;SDS011;17258;52.560;13.046;2023-06-14T13:50:26;2.43;;;2.17;;
30466;SDS011;17258;52.560;13.046;2023-06-14T14:00:27;2.65;;;1.88;;
30466;SDS011;17258;52.560;13.046;2023-06-14T14:10:28;3.10;;;1.63;;
30466;SDS011;17258;52.560;13.046;2023-06-14T14:20:32;1.77;;;1.50;;
30466;SDS011;17258;52.560;13.046;2023-06-14T14:30:34;3.05;;;1.70;;
30466;SDS011;17258;52.560;13.046;2023-06-14T14:40:34;1.77;;;1.67;;
30466;SDS011;17258;52.560;13.046;2023-06-14T14:50:35;1.50;;;1.40;;
30466;SDS011;17258;52.560;13.046;2023-06-14T15:00:35;1.50;;;1.40;;
30466;SDS011;17258;52.560;13.046;2023-06-14T15:10:36;3.17;;;1.53;;
30466;SDS011;17258;52.560;13.046;2023-06-14T15:20:43;10.93;;;3.70;;
30466;SDS011;17258;52.560;13.046;2023-06-14T15:30:43;4.00;;;3.70;;
30466;SDS011;17258;52.560;13.046;2023-06-14T15:40:44;4.10;;;3.70;;
30466;SDS011;17258;52.560;13.046;2023-06-14T15:50:46;10.27;;;5.05;;
30466;SDS011;17258;52.560;13.046;2023-06-14T16:00:46;5.55;;;5.05;;
30466;SDS011;17258;52.560;13.046;2023-06-14T16:10:47;12.37;;;11.67;;
30466;SDS011;17258;52.560;13.046;2023-06-14T16:20:48;11.63;;;10.93;;
30466;SDS011;17258;52.560;13.046;2023-06-14T16:30:48;14.20;;;13.40;;
30466;SDS011;17258;52.560;13.046;2023-06-14T16:40:49;9.65;;;9.05;;
30466;SDS011;17258;52.560;13.046;2023-06-14T16:50:50;10.00;;;9.10;;
30466;SDS011;17258;52.560;13.046;2023-06-14T17:00:51;8.07;;;7.60;;
30466;SDS011;17258;52.560;13.046;2023-06-14T17:10:54;14.67;;;13.37;;
30466;SDS011;17258;52.560;13.046;2023-06-14T17:20:56;13.10;;;12.32;;
30466;SDS011;17258;52.560;13.046;2023-06-14T17:30:57;10.97;;;10.33;;
30466;SDS011;17258;52.560;13.046;2023-06-14T17:40:58;3.40;;;3.20;;
30466;SDS011;17258;52.560;13.046;2023-06-14T17:51:03;2.55;;;2.13;;
30466;SDS011;17258;52.560;13.046;2023-06-14T18:01:05;2.13;;;1.92;;
30466;SDS011;17258;52.560;13.046;2023-06-14T18:11:06;5.67;;;4.10;;
30466;SDS011;17258;52.560;13.046;2023-06-14T18:21:09;8.02;;;7.22;;
30466;SDS011;17258;52.560;13.046;2023-06-14T18:31:10;1.70;;;1.53;;
30466;SDS011;17258;52.560;13.046;2023-06-14T18:41:14;6.15;;;2.10;;
30466;SDS011;17258;52.560;13.046;2023-06-14T18:51:15;1.88;;;1.77;;
30466;SDS011;17258;52.560;13.046;2023-06-14T19:01:15;2.20;;;2.00;;
30466;SDS011;17258;52.560;13.046;2023-06-14T19:11:16;2.17;;;1.80;;
30466;SDS011;17258;52.560;13.046;2023-06-14T19:21:17;2.10;;;1.60;;
30466;SDS011;17258;52.560;13.046;2023-06-14T19:31:18;2.40;;;1.77;;
30466;SDS011;17258;52.560;13.046;2023-06-14T19:41:18;2.17;;;1.97;;
30466;SDS011;17258;52.560;13.046;2023-06-14T19:51:19;3.88;;;1.75;;
30466;SDS011;17258;52.560;13.046;2023-06-14T20:01:20;1.77;;;1.67;;
30466;SDS011;17258;52.560;13.046;2023-06-14T20:11:21;1.70;;;1.60;;
30466;SDS011;17258;52.560;13.046;2023-06-14T20:21:21;1.53;;;1.40;;
30466;SDS011;17258;52.560;13.046;2023-06-14T20:31:22;2.60;;;1.60;;
30466;SDS011;17258;52.560;13.046;2023-06-14T20:41:23;1.55;;;1.45;;
30466;SDS011;17258;52.560;13.046;2023-06-14T20:51:24;1.77;;;1.60;;
30466;SDS011;17258;52.560;13.046;2023-06-14T21:01:24;1.77;;;1.67;;
30466;SDS011;17258;52.560;13.046;2023-06-14T21:11:32;1.70;;;1.60;;
30466;SDS011;17258;52.560;13.046;2023-06-14T21:21:33;1.42;;;1.20;;
30466;SDS011;17258;52.560;13.046;2023-06-14T21:31:34;4.18;;;1.65;;
30466;SDS011;17258;52.560;13.046;2023-06-14T21:41:37;2.17;;;1.52;;
30466;SDS011;17258;52.560;13.046;2023-06-14T21:51:38;1.90;;;1.43;;
30466;SDS011;17258;52.560;13.046;2023-06-14T22:01:40;1.98;;;1.77;;
30466;SDS011;17258;52.560;13.046;2023-06-14T22:11:41;2.70;;;1.63;;
30466;SDS011;17258;52.560;13.046;2023-06-14T22:21:44;2.55;;;1.60;;
30466;SDS011;17258;52.560;13.046;2023-06-14T22:31:50;1.90;;;1.80;;
30466;SDS011;17258;52.560;13.046;2023-06-14T22:41:52;2.70;;;1.90;;
30466;SDS011;17258;52.560;13.046;2023-06-14T22:51:53;2.70;;;1.38;;
30466;SDS011;17258;52.560;13.046;2023-06-14T23:01:56;1.55;;;1.45;;
30466;SDS011;17258;52.560;13.046;2023-06-14T23:11:56;5.80;;;1.73;;
30466;SDS011;17258;52.560;13.046;2023-06-14T23:21:57;2.87;;;1.70;;
30466;SDS011;17258;52.560;13.046;2023-06-14T23:32:01;1.80;;;1.70;;
30466;SDS011;17258;52.560;13.046;2023-06-14T23:42:04;2.05;;;1.55;;
30466;SDS011;17258;52.560;13.046;2023-06-14T23:52:06;1.92;;;1.58;;
